sensor_id;sensor_type;location;lat;lon;timestamp;temperature;humidity
50907;DHT22;36882;27.680;85.304;2022-07-23T00:00:50;23.50;99.90
50907;DHT22;36882;27.680;85.304;2022-07-23T00:03:20;23.50;99.90
50907;DHT22;36882;27.680;85.304;2022-07-23T00:05:51;23.50;99.90
50907;DHT22;36882;27.680;85.304;2022-07-23T00:08:22;23.50;99.90
50907;DHT22;36882;27.680;85.304;2022-07-23T00:10:52;23.50;99.90
50907;DHT22;36882;27.680;85.304;2022-07-23T00:13:23;23.50;99.90
50907;DHT22;36882;27.680;85.304;2022-07-23T00:15:54;23.50;99.90
50907;DHT22;36882;27.680;85.304;2022-07-23T00:18:26;23.60;99.90
50907;DHT22;36882;27.680;85.304;2022-07-23T00:20:56;23.60;99.90
50907;DHT22;36882;27.680;85.304;2022-07-23T00:23:42;23.60;99.90
50907;DHT22;36882;27.680;85.304;2022-07-23T00:26:28;23.60;99.90
50907;DHT22;36882;27.680;85.304;2022-07-23T00:29:14;23.60;99.90
50907;DHT22;36882;27.680;85.304;2022-07-23T00:31:45;23.50;99.90
50907;DHT22;36882;27.680;85.304;2022-07-23T00:34:15;23.50;99.90
50907;DHT22;36882;27.680;85.304;2022-07-23T00:36:46;23.40;99.90
50907;DHT22;36882;27.680;85.304;2022-07-23T00:39:32;23.50;99.90
50907;DHT22;36882;27.680;85.304;2022-07-23T00:42:02;23.40;99.90
50907;DHT22;36882;27.680;85.304;2022-07-23T00:44:33;23.40;99.90
50907;DHT22;36882;27.680;85.304;2022-07-23T00:47:03;23.40;99.90
50907;DHT22;36882;27.680;85.304;2022-07-23T00:49:35;23.50;99.90
50907;DHT22;36882;27.680;85.304;2022-07-23T00:52:19;23.50;99.90
50907;DHT22;36882;27.680;85.304;2022-07-23T00:54:50;23.50;99.90
50907;DHT22;36882;27.680;85.304;2022-07-23T00:57:21;23.50;99.90
50907;DHT22;36882;27.680;85.304;2022-07-23T00:59:55;23.50;99.90
50907;DHT22;36882;27.680;85.304;2022-07-23T01:02:28;23.60;99.90
50907;DHT22;36882;27.680;85.304;2022-07-23T01:05:14;23.60;99.90
50907;DHT22;36882;27.680;85.304;2022-07-23T01:08:01;23.60;99.90
50907;DHT22;36882;27.680;85.304;2022-07-23T01:10:33;23.70;99.90
50907;DHT22;36882;27.680;85.304;2022-07-23T01:13:08;23.70;99.90
50907;DHT22;36882;27.680;85.304;2022-07-23T01:15:39;23.70;99.90
50907;DHT22;36882;27.680;85.304;2022-07-23T01:18:10;23.80;99.90
50907;DHT22;36882;27.680;85.304;2022-07-23T01:20:42;23.80;99.90
50907;DHT22;36882;27.680;85.304;2022-07-23T01:23:12;23.80;99.90
50907;DHT22;36882;27.680;85.304;2022-07-23T01:25:59;23.80;99.90
50907;DHT22;36882;27.680;85.304;2022-07-23T01:28:29;23.90;99.90
50907;DHT22;36882;27.680;85.304;2022-07-23T01:30:59;24.00;99.90
50907;DHT22;36882;27.680;85.304;2022-07-23T01:33:33;24.00;99.90
50907;DHT22;36882;27.680;85.304;2022-07-23T01:36:03;24.10;99.90
50907;DHT22;36882;27.680;85.304;2022-07-23T01:38:34;24.20;99.90
50907;DHT22;36882;27.680;85.304;2022-07-23T01:41:05;24.30;99.90
50907;DHT22;36882;27.680;85.304;2022-07-23T01:43:36;24.40;99.90
50907;DHT22;36882;27.680;85.304;2022-07-23T01:46:07;24.40;99.90
50907;DHT22;36882;27.680;85.304;2022-07-23T01:48:38;24.50;99.90
50907;DHT22;36882;27.680;85.304;2022-07-23T01:51:09;24.60;99.90
50907;DHT22;36882;27.680;85.304;2022-07-23T01:53:39;24.70;99.90
50907;DHT22;36882;27.680;85.304;2022-07-23T01:56:10;24.70;99.90
50907;DHT22;36882;27.680;85.304;2022-07-23T01:59:04;24.80;99.90
50907;DHT22;36882;27.680;85.304;2022-07-23T02:01:35;24.90;99.90
50907;DHT22;36882;27.680;85.304;2022-07-23T02:04:05;25.00;99.90
50907;DHT22;36882;27.680;85.304;2022-07-23T02:06:37;25.20;99.80
50907;DHT22;36882;27.680;85.304;2022-07-23T02:09:07;25.30;99.90
50907;DHT22;36882;27.680;85.304;2022-07-23T02:11:38;25.40;99.90
50907;DHT22;36882;27.680;85.304;2022-07-23T02:14:25;25.50;99.90
50907;DHT22;36882;27.680;85.304;2022-07-23T02:16:56;25.70;99.90
50907;DHT22;36882;27.680;85.304;2022-07-23T02:19:26;25.70;99.90
50907;DHT22;36882;27.680;85.304;2022-07-23T02:21:57;25.80;99.20
50907;DHT22;36882;27.680;85.304;2022-07-23T02:24:27;25.90;98.80
50907;DHT22;36882;27.680;85.304;2022-07-23T02:27:14;26.00;98.50
50907;DHT22;36882;27.680;85.304;2022-07-23T02:29:45;26.20;98.90
50907;DHT22;36882;27.680;85.304;2022-07-23T02:32:17;26.30;97.80
50907;DHT22;36882;27.680;85.304;2022-07-23T02:34:48;26.50;97.40
50907;DHT22;36882;27.680;85.304;2022-07-23T02:37:19;26.60;97.60
50907;DHT22;36882;27.680;85.304;2022-07-23T02:40:17;26.80;97.60
50907;DHT22;36882;27.680;85.304;2022-07-23T02:42:48;27.00;97.80
50907;DHT22;36882;27.680;85.304;2022-07-23T02:45:18;27.20;96.30
50907;DHT22;36882;27.680;85.304;2022-07-23T02:47:49;27.50;95.90
50907;DHT22;36882;27.680;85.304;2022-07-23T02:50:20;27.60;96.80
50907;DHT22;36882;27.680;85.304;2022-07-23T02:52:51;27.70;96.20
50907;DHT22;36882;27.680;85.304;2022-07-23T02:55:21;27.80;95.80
50907;DHT22;36882;27.680;85.304;2022-07-23T02:57:52;27.80;95.30
50907;DHT22;36882;27.680;85.304;2022-07-23T03:00:23;27.80;96.30
50907;DHT22;36882;27.680;85.304;2022-07-23T03:02:54;27.70;95.10
50907;DHT22;36882;27.680;85.304;2022-07-23T03:05:24;27.60;95.30
50907;DHT22;36882;27.680;85.304;2022-07-23T03:07:55;27.50;95.20
50907;DHT22;36882;27.680;85.304;2022-07-23T03:10:26;27.60;95.60
50907;DHT22;36882;27.680;85.304;2022-07-23T03:12:56;27.80;94.80
50907;DHT22;36882;27.680;85.304;2022-07-23T03:15:27;28.00;95.10
50907;DHT22;36882;27.680;85.304;2022-07-23T03:17:59;28.10;93.70
50907;DHT22;36882;27.680;85.304;2022-07-23T03:20:29;28.20;93.10
50907;DHT22;36882;27.680;85.304;2022-07-23T03:23:00;28.40;94.50
50907;DHT22;36882;27.680;85.304;2022-07-23T03:25:30;28.60;93.60
50907;DHT22;36882;27.680;85.304;2022-07-23T03:28:01;28.60;93.50
50907;DHT22;36882;27.680;85.304;2022-07-23T03:30:31;28.70;94.90
50907;DHT22;36882;27.680;85.304;2022-07-23T03:33:02;28.80;94.50
50907;DHT22;36882;27.680;85.304;2022-07-23T03:35:32;28.90;94.50
50907;DHT22;36882;27.680;85.304;2022-07-23T03:38:03;28.90;94.00
50907;DHT22;36882;27.680;85.304;2022-07-23T03:40:33;29.00;93.40
50907;DHT22;36882;27.680;85.304;2022-07-23T03:43:04;29.00;93.30
50907;DHT22;36882;27.680;85.304;2022-07-23T03:45:34;29.00;93.60
50907;DHT22;36882;27.680;85.304;2022-07-23T03:48:05;29.00;92.60
50907;DHT22;36882;27.680;85.304;2022-07-23T03:50:35;29.00;92.30
50907;DHT22;36882;27.680;85.304;2022-07-23T03:53:22;29.00;92.40
50907;DHT22;36882;27.680;85.304;2022-07-23T03:55:52;29.00;93.70
50907;DHT22;36882;27.680;85.304;2022-07-23T03:58:23;28.90;91.90
50907;DHT22;36882;27.680;85.304;2022-07-23T04:00:53;28.90;92.20
50907;DHT22;36882;27.680;85.304;2022-07-23T04:03:24;28.60;92.40
50907;DHT22;36882;27.680;85.304;2022-07-23T04:05:54;28.50;92.50
50907;DHT22;36882;27.680;85.304;2022-07-23T04:08:26;28.50;93.60
50907;DHT22;36882;27.680;85.304;2022-07-23T04:10:56;28.60;94.00
50907;DHT22;36882;27.680;85.304;2022-07-23T04:13:27;28.70;93.00
50907;DHT22;36882;27.680;85.304;2022-07-23T04:15:57;28.90;92.70
50907;DHT22;36882;27.680;85.304;2022-07-23T04:18:29;28.90;92.60
50907;DHT22;36882;27.680;85.304;2022-07-23T04:20:59;28.90;93.10
50907;DHT22;36882;27.680;85.304;2022-07-23T04:23:32;28.90;92.80
50907;DHT22;36882;27.680;85.304;2022-07-23T04:26:02;28.90;91.60
50907;DHT22;36882;27.680;85.304;2022-07-23T04:28:33;28.80;92.70
50907;DHT22;36882;27.680;85.304;2022-07-23T04:31:03;28.80;92.10
50907;DHT22;36882;27.680;85.304;2022-07-23T04:33:34;28.80;92.80
50907;DHT22;36882;27.680;85.304;2022-07-23T04:36:05;28.90;93.40
50907;DHT22;36882;27.680;85.304;2022-07-23T04:38:36;29.00;93.60
50907;DHT22;36882;27.680;85.304;2022-07-23T04:41:06;29.10;93.80
50907;DHT22;36882;27.680;85.304;2022-07-23T04:43:52;29.30;91.30
50907;DHT22;36882;27.680;85.304;2022-07-23T04:46:35;29.20;91.80
50907;DHT22;36882;27.680;85.304;2022-07-23T04:49:06;29.30;91.90
50907;DHT22;36882;27.680;85.304;2022-07-23T04:51:36;29.40;91.40
50907;DHT22;36882;27.680;85.304;2022-07-23T04:54:07;29.50;89.70
50907;DHT22;36882;27.680;85.304;2022-07-23T04:57:02;29.40;88.60
50907;DHT22;36882;27.680;85.304;2022-07-23T04:59:44;29.40;89.90
50907;DHT22;36882;27.680;85.304;2022-07-23T05:02:15;29.30;91.20
50907;DHT22;36882;27.680;85.304;2022-07-23T05:04:47;29.30;88.90
50907;DHT22;36882;27.680;85.304;2022-07-23T05:07:17;29.30;90.00
50907;DHT22;36882;27.680;85.304;2022-07-23T05:09:48;29.40;90.40
50907;DHT22;36882;27.680;85.304;2022-07-23T05:12:19;29.40;90.30
50907;DHT22;36882;27.680;85.304;2022-07-23T05:14:50;29.50;91.50
50907;DHT22;36882;27.680;85.304;2022-07-23T05:17:22;29.70;90.40
50907;DHT22;36882;27.680;85.304;2022-07-23T05:19:52;29.90;90.30
50907;DHT22;36882;27.680;85.304;2022-07-23T05:22:27;30.10;89.70
50907;DHT22;36882;27.680;85.304;2022-07-23T05:24:58;30.20;90.50
50907;DHT22;36882;27.680;85.304;2022-07-23T05:27:29;30.20;90.00
50907;DHT22;36882;27.680;85.304;2022-07-23T05:29:59;30.20;88.10
50907;DHT22;36882;27.680;85.304;2022-07-23T05:32:32;30.30;89.90
50907;DHT22;36882;27.680;85.304;2022-07-23T05:35:05;30.30;88.70
50907;DHT22;36882;27.680;85.304;2022-07-23T05:37:35;30.40;89.80
50907;DHT22;36882;27.680;85.304;2022-07-23T05:40:08;30.50;90.70
50907;DHT22;36882;27.680;85.304;2022-07-23T05:42:40;30.50;88.30
50907;DHT22;36882;27.680;85.304;2022-07-23T05:45:12;30.60;88.60
50907;DHT22;36882;27.680;85.304;2022-07-23T05:47:45;30.60;89.40
50907;DHT22;36882;27.680;85.304;2022-07-23T05:50:16;30.50;88.80
50907;DHT22;36882;27.680;85.304;2022-07-23T05:53:02;30.40;89.00
50907;DHT22;36882;27.680;85.304;2022-07-23T05:55:32;30.40;90.20
50907;DHT22;36882;27.680;85.304;2022-07-23T05:58:03;30.60;89.70
50907;DHT22;36882;27.680;85.304;2022-07-23T06:00:34;30.60;90.70
50907;DHT22;36882;27.680;85.304;2022-07-23T06:03:04;30.80;91.20
50907;DHT22;36882;27.680;85.304;2022-07-23T06:05:35;31.00;90.10
50907;DHT22;36882;27.680;85.304;2022-07-23T06:08:06;31.00;89.10
50907;DHT22;36882;27.680;85.304;2022-07-23T06:10:36;31.00;88.00
50907;DHT22;36882;27.680;85.304;2022-07-23T06:13:34;31.00;88.60
50907;DHT22;36882;27.680;85.304;2022-07-23T06:16:05;31.10;86.00
50907;DHT22;36882;27.680;85.304;2022-07-23T06:18:35;31.10;88.40
50907;DHT22;36882;27.680;85.304;2022-07-23T06:21:06;30.90;88.10
50907;DHT22;36882;27.680;85.304;2022-07-23T06:23:57;30.80;88.40
50907;DHT22;36882;27.680;85.304;2022-07-23T06:26:27;30.90;90.20
50907;DHT22;36882;27.680;85.304;2022-07-23T06:28:57;31.10;88.90
50907;DHT22;36882;27.680;85.304;2022-07-23T06:31:28;31.20;89.10
50907;DHT22;36882;27.680;85.304;2022-07-23T06:33:59;31.20;88.40
50907;DHT22;36882;27.680;85.304;2022-07-23T06:36:30;31.30;90.10
50907;DHT22;36882;27.680;85.304;2022-07-23T06:39:00;31.30;89.20
50907;DHT22;36882;27.680;85.304;2022-07-23T06:41:46;31.30;90.50
50907;DHT22;36882;27.680;85.304;2022-07-23T06:44:18;31.20;88.40
50907;DHT22;36882;27.680;85.304;2022-07-23T06:46:49;31.30;87.50
50907;DHT22;36882;27.680;85.304;2022-07-23T06:49:19;31.40;90.60
50907;DHT22;36882;27.680;85.304;2022-07-23T06:51:50;31.50;90.50
50907;DHT22;36882;27.680;85.304;2022-07-23T06:54:21;31.60;90.00
50907;DHT22;36882;27.680;85.304;2022-07-23T06:56:52;31.70;89.70
50907;DHT22;36882;27.680;85.304;2022-07-23T06:59:22;31.80;87.40
50907;DHT22;36882;27.680;85.304;2022-07-23T07:02:09;31.70;87.10
50907;DHT22;36882;27.680;85.304;2022-07-23T07:04:41;31.70;86.20
50907;DHT22;36882;27.680;85.304;2022-07-23T07:07:12;31.60;87.00
50907;DHT22;36882;27.680;85.304;2022-07-23T07:09:42;31.60;86.40
50907;DHT22;36882;27.680;85.304;2022-07-23T07:12:15;31.60;86.60
50907;DHT22;36882;27.680;85.304;2022-07-23T07:14:45;31.50;86.00
50907;DHT22;36882;27.680;85.304;2022-07-23T07:17:16;31.40;86.40
50907;DHT22;36882;27.680;85.304;2022-07-23T07:19:47;31.40;86.50
50907;DHT22;36882;27.680;85.304;2022-07-23T07:22:19;31.40;87.20
50907;DHT22;36882;27.680;85.304;2022-07-23T07:24:50;31.30;85.80
50907;DHT22;36882;27.680;85.304;2022-07-23T07:27:20;31.40;85.00
50907;DHT22;36882;27.680;85.304;2022-07-23T07:29:51;31.30;87.20
50907;DHT22;36882;27.680;85.304;2022-07-23T07:32:22;31.40;88.00
50907;DHT22;36882;27.680;85.304;2022-07-23T07:35:14;31.40;87.50
50907;DHT22;36882;27.680;85.304;2022-07-23T07:37:46;31.40;86.40
50907;DHT22;36882;27.680;85.304;2022-07-23T07:40:17;31.20;87.80
50907;DHT22;36882;27.680;85.304;2022-07-23T07:42:49;31.20;85.90
50907;DHT22;36882;27.680;85.304;2022-07-23T07:45:21;31.20;89.30
50907;DHT22;36882;27.680;85.304;2022-07-23T07:47:53;31.20;90.60
50907;DHT22;36882;27.680;85.304;2022-07-23T07:50:24;31.20;90.40
50907;DHT22;36882;27.680;85.304;2022-07-23T07:52:54;31.20;90.30
50907;DHT22;36882;27.680;85.304;2022-07-23T07:55:25;31.20;90.90
50907;DHT22;36882;27.680;85.304;2022-07-23T07:57:57;31.20;91.50
50907;DHT22;36882;27.680;85.304;2022-07-23T08:00:29;31.20;91.70
50907;DHT22;36882;27.680;85.304;2022-07-23T08:03:00;31.10;91.70
50907;DHT22;36882;27.680;85.304;2022-07-23T08:05:31;31.10;92.10
50907;DHT22;36882;27.680;85.304;2022-07-23T08:08:16;31.00;92.10
50907;DHT22;36882;27.680;85.304;2022-07-23T08:11:08;30.90;92.30
50907;DHT22;36882;27.680;85.304;2022-07-23T08:13:39;30.70;92.20
50907;DHT22;36882;27.680;85.304;2022-07-23T08:16:10;30.60;92.70
50907;DHT22;36882;27.680;85.304;2022-07-23T08:32:22;28.60;96.00
50907;DHT22;36882;27.680;85.304;2022-07-23T08:35:11;28.40;96.40
50907;DHT22;36882;27.680;85.304;2022-07-23T08:37:42;28.80;96.00
50907;DHT22;36882;27.680;85.304;2022-07-23T08:40:12;29.00;95.30
50907;DHT22;36882;27.680;85.304;2022-07-23T08:42:43;29.00;94.70
50907;DHT22;36882;27.680;85.304;2022-07-23T08:45:21;29.10;93.70
50907;DHT22;36882;27.680;85.304;2022-07-23T08:47:53;29.00;93.30
50907;DHT22;36882;27.680;85.304;2022-07-23T08:50:25;28.90;93.20
50907;DHT22;36882;27.680;85.304;2022-07-23T08:52:56;28.80;93.10
50907;DHT22;36882;27.680;85.304;2022-07-23T08:55:54;28.70;93.00
50907;DHT22;36882;27.680;85.304;2022-07-23T08:58:41;28.70;93.00
50907;DHT22;36882;27.680;85.304;2022-07-23T09:01:26;28.60;92.80
50907;DHT22;36882;27.680;85.304;2022-07-23T09:03:57;28.60;93.30
50907;DHT22;36882;27.680;85.304;2022-07-23T09:06:29;28.50;93.50
50907;DHT22;36882;27.680;85.304;2022-07-23T09:09:17;28.50;93.60
50907;DHT22;36882;27.680;85.304;2022-07-23T09:11:51;28.60;93.40
50907;DHT22;36882;27.680;85.304;2022-07-23T09:14:45;28.60;93.00
50907;DHT22;36882;27.680;85.304;2022-07-23T09:17:18;28.40;93.40
50907;DHT22;36882;27.680;85.304;2022-07-23T09:19:48;28.30;93.60
50907;DHT22;36882;27.680;85.304;2022-07-23T09:22:25;28.20;93.90
50907;DHT22;36882;27.680;85.304;2022-07-23T09:25:17;28.20;93.80
50907;DHT22;36882;27.680;85.304;2022-07-23T09:28:00;28.20;94.10
50907;DHT22;36882;27.680;85.304;2022-07-23T09:30:33;28.40;93.70
50907;DHT22;36882;27.680;85.304;2022-07-23T09:33:07;28.30;93.50
50907;DHT22;36882;27.680;85.304;2022-07-23T09:35:51;28.40;93.60
50907;DHT22;36882;27.680;85.304;2022-07-23T09:38:24;28.40;94.00
50907;DHT22;36882;27.680;85.304;2022-07-23T09:41:08;28.40;94.10
50907;DHT22;36882;27.680;85.304;2022-07-23T09:43:40;28.40;93.70
50907;DHT22;36882;27.680;85.304;2022-07-23T09:46:21;28.40;94.10
50907;DHT22;36882;27.680;85.304;2022-07-23T09:48:55;28.40;94.10
50907;DHT22;36882;27.680;85.304;2022-07-23T09:51:27;28.30;93.90
50907;DHT22;36882;27.680;85.304;2022-07-23T09:54:31;28.30;94.00
50907;DHT22;36882;27.680;85.304;2022-07-23T09:57:06;28.30;94.10
50907;DHT22;36882;27.680;85.304;2022-07-23T09:59:40;28.20;94.00
50907;DHT22;36882;27.680;85.304;2022-07-23T10:02:12;28.30;93.70
50907;DHT22;36882;27.680;85.304;2022-07-23T10:04:44;28.30;94.10
50907;DHT22;36882;27.680;85.304;2022-07-23T10:07:18;28.30;93.50
50907;DHT22;36882;27.680;85.304;2022-07-23T10:10:05;28.40;93.20
50907;DHT22;36882;27.680;85.304;2022-07-23T10:12:36;28.50;93.40
50907;DHT22;36882;27.680;85.304;2022-07-23T10:15:18;28.50;93.40
50907;DHT22;36882;27.680;85.304;2022-07-23T10:18:04;28.50;92.80
50907;DHT22;36882;27.680;85.304;2022-07-23T10:20:34;28.60;93.60
50907;DHT22;36882;27.680;85.304;2022-07-23T10:26:34;28.60;94.30
50907;DHT22;36882;27.680;85.304;2022-07-23T10:29:42;28.60;93.60
50907;DHT22;36882;27.680;85.304;2022-07-23T10:32:45;28.60;93.50
50907;DHT22;36882;27.680;85.304;2022-07-23T10:35:33;28.70;94.10
50907;DHT22;36882;27.680;85.304;2022-07-23T10:38:19;28.60;94.60
50907;DHT22;36882;27.680;85.304;2022-07-23T10:40:57;28.60;94.80
50907;DHT22;36882;27.680;85.304;2022-07-23T10:43:28;28.60;94.70
50907;DHT22;36882;27.680;85.304;2022-07-23T10:46:25;28.60;94.80
50907;DHT22;36882;27.680;85.304;2022-07-23T10:49:27;28.60;95.00
50907;DHT22;36882;27.680;85.304;2022-07-23T10:52:21;28.60;94.60
50907;DHT22;36882;27.680;85.304;2022-07-23T10:58:04;28.40;94.60
50907;DHT22;36882;27.680;85.304;2022-07-23T11:00:36;28.40;94.20
50907;DHT22;36882;27.680;85.304;2022-07-23T11:03:28;28.30;94.60
50907;DHT22;36882;27.680;85.304;2022-07-23T11:06:12;28.30;94.70
50907;DHT22;36882;27.680;85.304;2022-07-23T11:08:42;28.30;94.90
50907;DHT22;36882;27.680;85.304;2022-07-23T11:11:13;28.20;94.70
50907;DHT22;36882;27.680;85.304;2022-07-23T11:13:47;28.20;94.90
50907;DHT22;36882;27.680;85.304;2022-07-23T11:16:20;28.30;94.60
50907;DHT22;36882;27.680;85.304;2022-07-23T11:19:09;28.20;94.50
50907;DHT22;36882;27.680;85.304;2022-07-23T11:21:41;28.20;94.60
50907;DHT22;36882;27.680;85.304;2022-07-23T11:24:16;28.30;94.70
50907;DHT22;36882;27.680;85.304;2022-07-23T11:26:51;28.20;94.20
50907;DHT22;36882;27.680;85.304;2022-07-23T11:29:41;28.30;94.40
50907;DHT22;36882;27.680;85.304;2022-07-23T11:32:23;28.30;94.50
50907;DHT22;36882;27.680;85.304;2022-07-23T11:34:54;28.40;94.20
50907;DHT22;36882;27.680;85.304;2022-07-23T11:37:40;28.50;93.90
50907;DHT22;36882;27.680;85.304;2022-07-23T11:40:14;28.50;93.60
50907;DHT22;36882;27.680;85.304;2022-07-23T11:43:02;28.50;93.60
50907;DHT22;36882;27.680;85.304;2022-07-23T11:45:51;28.50;93.50
50907;DHT22;36882;27.680;85.304;2022-07-23T11:48:24;28.50;93.90
50907;DHT22;36882;27.680;85.304;2022-07-23T11:50:55;28.50;93.90
50907;DHT22;36882;27.680;85.304;2022-07-23T11:53:32;28.50;93.20
50907;DHT22;36882;27.680;85.304;2022-07-23T11:56:06;28.50;92.60
50907;DHT22;36882;27.680;85.304;2022-07-23T11:58:38;28.50;93.20
50907;DHT22;36882;27.680;85.304;2022-07-23T12:01:10;28.50;93.80
50907;DHT22;36882;27.680;85.304;2022-07-23T12:03:55;28.50;94.20
50907;DHT22;36882;27.680;85.304;2022-07-23T12:06:26;28.40;94.30
50907;DHT22;36882;27.680;85.304;2022-07-23T12:08:56;28.40;94.30
